createdAt,value
2019-02-16T00:00:08.136Z,147524.61
2019-02-16T00:01:14.055Z,147527.14
2019-02-16T00:02:19.766Z,147531.56
2019-02-16T00:03:25.660Z,147530.30
2019-02-16T00:04:31.604Z,147521.50
2019-02-16T00:05:37.525Z,147522.13
2019-02-16T00:06:43.452Z,147525.87
2019-02-16T00:07:49.372Z,147518.97
2019-02-16T00:08:55.310Z,147513.95
2019-02-16T00:10:01.241Z,147534.69
2019-02-16T00:11:07.183Z,147539.75
2019-02-16T00:12:13.070Z,147555.47
2019-02-16T00:13:18.992Z,147534.05
2019-02-16T00:14:24.918Z,147561.73
2019-02-16T00:15:31.461Z,147635.97
2019-02-16T00:16:37.552Z,147614.59
2019-02-16T00:17:43.504Z,147564.91
2019-02-16T00:18:49.450Z,147556.09
2019-02-16T00:19:55.362Z,147566.13
2019-02-16T00:21:03.903Z,147556.72
2019-02-16T00:22:07.204Z,147537.84
2019-02-16T00:23:13.149Z,147492.55
2019-02-16T00:24:19.153Z,147495.70
2019-02-16T00:25:25.043Z,147500.08
2019-02-16T00:26:30.975Z,147522.13
2019-02-16T00:27:36.863Z,147524.61
2019-02-16T00:28:42.822Z,147532.20
2019-02-16T00:29:48.737Z,147542.22
2019-02-16T00:30:54.652Z,147532.78
2019-02-16T00:32:00.571Z,147522.13
2019-02-16T00:33:06.528Z,147539.11
2019-02-16T00:34:12.441Z,147523.39
2019-02-16T00:35:18.341Z,147500.08
2019-02-16T00:36:24.340Z,147498.81
2019-02-16T00:37:30.399Z,147491.91
2019-02-16T00:38:37.246Z,147471.81
2019-02-16T00:39:42.299Z,147474.92
2019-02-16T00:40:48.186Z,147446.66
2019-02-16T00:41:54.102Z,147430.31
2019-02-16T00:43:00.093Z,147414.56
2019-02-16T00:44:06.025Z,147407.66
2019-02-16T00:45:11.983Z,147408.28
2019-02-16T00:46:17.910Z,147412.08
2019-02-16T00:47:23.809Z,147432.80
2019-02-16T00:48:29.756Z,147455.47
2019-02-16T00:49:35.732Z,147463.02
2019-02-16T00:50:41.688Z,147456.69
2019-02-16T00:51:47.656Z,147471.81
2019-02-16T00:52:53.614Z,147481.84
2019-02-16T00:53:59.545Z,147511.42
2019-02-16T00:55:04.758Z,147493.81
2019-02-16T00:56:10.722Z,147496.34
2019-02-16T00:57:16.635Z,147500.72
2019-02-16T00:58:22.871Z,147490.06
2019-02-16T00:59:29.205Z,147467.39
2019-02-16T01:00:35.236Z,147444.77
2019-02-16T01:01:41.711Z,147466.75
2019-02-16T01:02:47.650Z,147459.84
2019-02-16T01:03:53.643Z,147468.66
2019-02-16T01:04:59.569Z,147476.19
2019-02-16T01:06:05.502Z,147482.47
2019-02-16T01:07:11.432Z,147479.36
2019-02-16T01:08:17.385Z,147479.36
2019-02-16T01:09:23.355Z,147488.80
2019-02-16T01:10:29.262Z,147485.63
2019-02-16T01:11:35.212Z,147484.38
2019-02-16T01:12:41.088Z,147477.45
2019-02-16T01:13:47.082Z,147470.55
2019-02-16T01:14:52.959Z,147456.09
2019-02-16T01:15:58.928Z,147480.63
2019-02-16T01:17:04.537Z,147463.64
2019-02-16T01:18:10.507Z,147474.30
2019-02-16T01:19:17.027Z,147511.42
2019-02-16T01:20:23.456Z,147529.67
2019-02-16T01:21:29.414Z,147507.00
2019-02-16T01:22:35.354Z,147493.17
2019-02-16T01:23:41.287Z,147479.36
2019-02-16T01:24:47.270Z,147479.36
2019-02-16T01:25:53.175Z,147466.75
2019-02-16T01:26:59.105Z,147451.05
2019-02-16T01:28:05.011Z,147441.59
2019-02-16T01:29:10.977Z,147435.97
2019-02-16T01:30:16.509Z,147427.16
2019-02-16T01:31:22.458Z,147424.63
2019-02-16T01:32:28.373Z,147420.87
2019-02-16T01:33:34.330Z,147417.09
2019-02-16T01:34:40.290Z,147426.53
2019-02-16T01:35:46.243Z,147432.80
2019-02-16T01:36:52.166Z,147454.20
2019-02-16T01:37:58.102Z,147448.52
2019-02-16T01:39:03.480Z,147442.88
2019-02-16T01:40:08.893Z,147438.50
2019-02-16T01:41:15.258Z,147446.03
2019-02-16T01:42:21.225Z,147495.08
2019-02-16T01:43:27.144Z,147533.41
2019-02-16T01:44:33.078Z,147547.28
2019-02-16T01:45:39.004Z,147529.03
2019-02-16T01:46:44.908Z,147496.97
2019-02-16T01:47:50.855Z,147472.45
2019-02-16T01:48:56.778Z,147451.05
2019-02-16T01:50:02.393Z,147457.95
2019-02-16T01:51:08.394Z,147437.22
2019-02-16T01:52:14.275Z,147421.52
2019-02-16T01:53:20.201Z,147410.81
2019-02-16T01:54:26.183Z,147399.47
2019-02-16T01:55:32.138Z,147389.41
2019-02-16T01:56:38.068Z,147385.66
2019-02-16T01:57:43.971Z,147368.69
2019-02-16T01:58:49.928Z,147373.70
2019-02-16T01:59:55.882Z,147385.66
2019-02-16T02:01:02.504Z,147400.75
2019-02-16T02:02:09.336Z,147437.86
2019-02-16T02:03:15.338Z,147458.58
2019-02-16T02:04:21.284Z,147481.84
2019-02-16T02:05:27.235Z,147466.12
2019-02-16T02:06:32.643Z,147437.22
2019-02-16T02:07:38.310Z,147420.25
2019-02-16T02:08:44.280Z,147418.98
2019-02-16T02:09:50.261Z,147426.53
2019-02-16T02:10:56.192Z,147463.02
2019-02-16T02:12:01.893Z,147471.81
2019-02-16T02:13:07.456Z,147512.05
2019-02-16T02:14:13.369Z,147539.11
2019-02-16T02:15:19.236Z,147505.14
2019-02-16T02:16:25.176Z,147457.95
2019-02-16T02:17:30.787Z,147415.19
2019-02-16T02:18:36.671Z,147412.08
2019-02-16T02:19:42.601Z,147400.75
2019-02-16T02:20:48.499Z,147371.84
2019-02-16T02:21:55.414Z,147363.69
2019-02-16T02:23:01.681Z,147344.19
2019-02-16T02:24:07.691Z,147341.66
2019-02-16T02:25:13.285Z,147356.72
2019-02-16T02:26:19.181Z,147369.95
2019-02-16T02:27:24.753Z,147374.97
2019-02-16T02:28:31.067Z,147380.03
2019-02-16T02:29:37.015Z,147388.19
2019-02-16T02:30:42.945Z,147373.06
2019-02-16T02:31:48.862Z,147368.06
2019-02-16T02:32:54.772Z,147391.31
2019-02-16T02:34:00.709Z,147399.47
2019-02-16T02:35:05.991Z,147391.31
2019-02-16T02:36:11.920Z,147439.70
2019-02-16T02:37:17.829Z,147489.42
2019-02-16T02:38:23.772Z,147506.41
2019-02-16T02:39:29.703Z,147522.13
2019-02-16T02:40:35.660Z,147512.05
2019-02-16T02:41:41.538Z,147481.25
2019-02-16T02:42:47.466Z,147458.58
2019-02-16T02:43:53.464Z,147427.78
2019-02-16T02:44:59.454Z,147395.73
2019-02-16T02:46:05.420Z,147373.06
2019-02-16T02:47:11.402Z,147352.34
2019-02-16T02:48:17.287Z,147344.81
2019-02-16T02:49:23.227Z,147350.45
2019-02-16T02:50:29.134Z,147352.98
2019-02-16T02:51:35.064Z,147342.28
2019-02-16T02:52:40.963Z,147372.44
2019-02-16T02:53:47.021Z,147380.03
2019-02-16T02:54:52.877Z,147371.84
2019-02-16T02:55:58.876Z,147364.27
2019-02-16T02:57:04.838Z,147359.89
2019-02-16T02:58:10.946Z,147330.95
2019-02-16T02:59:16.841Z,147310.23
2019-02-16T03:00:22.767Z,147298.91
2019-02-16T03:01:28.742Z,147288.22
2019-02-16T03:02:34.625Z,147288.22
2019-02-16T03:03:40.553Z,147281.31
2019-02-16T03:04:47.019Z,147281.94
2019-02-16T03:05:52.921Z,147276.94
2019-02-16T03:06:58.892Z,147277.56
2019-02-16T03:08:04.790Z,147258.70
2019-02-16T03:09:10.734Z,147239.84
2019-02-16T03:10:16.386Z,147223.50
2019-02-16T03:11:22.515Z,147204.66
2019-02-16T03:12:28.497Z,147197.75
2019-02-16T03:13:34.418Z,147183.94
2019-02-16T03:14:40.355Z,147166.97
2019-02-16T03:15:46.355Z,147175.14
2019-02-16T03:16:52.301Z,147171.98
2019-02-16T03:17:58.202Z,147172.63
2019-02-16T03:19:04.096Z,147175.14
2019-02-16T03:20:09.665Z,147184.58
2019-02-16T03:21:15.652Z,147212.81
2019-02-16T03:22:21.540Z,147219.12
2019-02-16T03:23:27.144Z,147213.44
2019-02-16T03:24:33.065Z,147204.66
2019-02-16T03:25:39.001Z,147195.84
2019-02-16T03:26:55.062Z,147187.69
2019-02-16T03:28:16.043Z,147178.89
2019-02-16T03:29:21.895Z,147171.98
2019-02-16T03:30:29.234Z,147175.78
2019-02-16T03:31:40.208Z,147177.03
2019-02-16T03:32:48.591Z,147178.30
2019-02-16T03:33:58.095Z,147185.84
2019-02-16T03:35:09.279Z,147190.22
2019-02-16T03:38:07.194Z,147209.70
2019-02-16T03:39:12.436Z,147224.14
2019-02-16T03:40:18.329Z,147247.37
2019-02-16T03:41:24.229Z,147254.91
2019-02-16T03:42:30.189Z,147271.87
2019-02-16T03:43:36.078Z,147292.64
2019-02-16T03:44:42.008Z,147339.13
2019-02-16T03:45:48.366Z,147352.98
2019-02-16T03:46:53.969Z,147337.28
2019-02-16T03:47:59.925Z,147312.13
2019-02-16T03:49:05.827Z,147301.44
2019-02-16T03:50:11.752Z,147288.84
2019-02-16T03:51:17.656Z,147307.70
2019-02-16T03:52:23.606Z,147320.94
2019-02-16T03:53:29.522Z,147344.81
2019-02-16T03:54:35.504Z,147391.94
2019-02-16T03:55:41.502Z,147408.28
2019-02-16T03:56:47.474Z,147391.31
2019-02-16T03:57:53.406Z,147411.44
2019-02-16T03:58:59.372Z,147390.67
2019-02-16T04:00:04.595Z,147407.02
2019-02-16T04:01:10.480Z,147410.19
2019-02-16T04:02:16.400Z,147398.22
2019-02-16T04:03:22.293Z,147400.75
2019-02-16T04:04:28.270Z,147392.58
2019-02-16T04:05:34.165Z,147366.80
2019-02-16T04:06:40.067Z,147331.59
2019-02-16T04:07:46.027Z,147345.44
2019-02-16T04:08:52.585Z,147344.81
2019-02-16T04:09:59.192Z,147313.98
2019-02-16T04:11:05.083Z,147309.61
2019-02-16T04:12:10.719Z,147288.84
2019-02-16T04:13:16.681Z,147296.42
2019-02-16T04:14:22.581Z,147308.97
2019-02-16T04:15:28.544Z,147339.13
2019-02-16T04:16:34.551Z,147336.02
2019-02-16T04:17:40.650Z,147372.44
2019-02-16T04:18:47.095Z,147381.88
2019-02-16T04:19:52.757Z,147378.12
2019-02-16T04:20:58.758Z,147368.06
2019-02-16T04:22:04.673Z,147370.59
2019-02-16T04:23:10.617Z,147376.86
2019-02-16T04:24:16.584Z,147363.05
2019-02-16T04:25:22.525Z,147352.98
2019-02-16T04:26:28.491Z,147358.63
2019-02-16T04:27:34.408Z,147374.33
2019-02-16T04:28:40.335Z,147367.42
2019-02-16T04:29:46.266Z,147369.33
2019-02-16T04:30:52.197Z,147373.06
2019-02-16T04:31:58.102Z,147355.47
2019-02-16T04:33:04.029Z,147317.14
2019-02-16T04:34:09.970Z,147296.42
2019-02-16T04:35:15.564Z,147260.59
2019-02-16T04:36:21.490Z,147242.36
2019-02-16T04:37:27.437Z,147220.39
2019-02-16T04:38:33.351Z,147217.23
2019-02-16T04:39:39.262Z,147210.97
2019-02-16T04:40:45.180Z,147183.94
2019-02-16T04:41:51.134Z,147183.94
2019-02-16T04:42:57.076Z,147170.14
2019-02-16T04:44:02.651Z,147167.61
2019-02-16T04:45:07.909Z,147170.14
2019-02-16T04:46:14.093Z,147165.08
2019-02-16T04:47:20.042Z,147180.16
2019-02-16T04:48:25.934Z,147175.78
2019-02-16T04:49:31.868Z,147199.64
2019-02-16T04:50:37.804Z,147190.84
2019-02-16T04:51:43.748Z,147185.20
2019-02-16T04:52:49.674Z,147170.14
2019-02-16T04:53:55.564Z,147151.91
2019-02-16T04:55:01.464Z,147153.75
2019-02-16T04:56:07.386Z,147165.08
2019-02-16T04:57:14.231Z,147178.89
2019-02-16T04:58:20.165Z,147160.08
2019-02-16T04:59:26.059Z,147138.69
2019-02-16T05:00:31.627Z,147125.53
2019-02-16T05:01:37.972Z,147126.16
2019-02-16T05:02:44.487Z,147133.06
2019-02-16T05:03:50.436Z,147115.47
2019-02-16T05:04:56.369Z,147109.83
2019-02-16T05:06:02.300Z,147112.94
2019-02-16T05:07:08.275Z,147114.84
2019-02-16T05:08:14.226Z,147136.80
2019-02-16T05:09:20.124Z,147142.48
2019-02-16T05:10:26.082Z,147185.84
2019-02-16T05:11:32.010Z,147188.31
2019-02-16T05:12:38.437Z,147215.97
2019-02-16T05:13:44.760Z,147209.06
2019-02-16T05:14:50.642Z,147220.39
2019-02-16T05:15:56.553Z,147208.44
2019-02-16T05:17:02.487Z,147188.94
2019-02-16T05:18:08.388Z,147163.81
2019-02-16T05:19:14.334Z,147150.02
2019-02-16T05:20:20.249Z,147140.59
2019-02-16T05:21:26.214Z,147144.38
2019-02-16T05:22:32.108Z,147123.00
2019-02-16T05:23:38.054Z,147110.47
2019-02-16T05:24:44.017Z,147099.14
2019-02-16T05:25:51.053Z,147089.72
2019-02-16T05:26:55.925Z,147092.88
2019-02-16T05:28:01.947Z,147090.34
2019-02-16T05:29:07.886Z,147089.09
2019-02-16T05:30:13.103Z,147090.98
2019-02-16T05:31:19.003Z,147103.52
2019-02-16T05:32:24.952Z,147133.69
2019-02-16T05:33:30.843Z,147156.92
2019-02-16T05:34:36.936Z,147167.61
2019-02-16T05:35:42.858Z,147136.22
2019-02-16T05:36:48.878Z,147123.00
2019-02-16T05:37:56.126Z,147098.52
2019-02-16T05:39:02.090Z,147069.02
2019-02-16T05:40:07.309Z,147063.97
2019-02-16T05:41:13.257Z,147058.33
2019-02-16T05:42:19.186Z,147075.92
2019-02-16T05:43:25.154Z,147060.22
2019-02-16T05:44:31.089Z,147052.06
2019-02-16T05:45:36.996Z,147048.28
2019-02-16T05:46:42.933Z,147024.42
2019-02-16T05:47:48.929Z,147025.69
2019-02-16T05:48:54.867Z,147010.00
2019-02-16T05:50:00.813Z,147015.00
2019-02-16T05:51:06.760Z,147015.00
2019-02-16T05:52:15.824Z,147013.73
2019-02-16T05:53:21.777Z,147019.38
2019-02-16T05:54:27.771Z,147004.31
2019-02-16T05:55:34.320Z,147002.42
2019-02-16T05:56:40.778Z,146994.27
2019-02-16T05:57:46.775Z,146988.00
2019-02-16T05:58:52.699Z,146989.89
2019-02-16T05:59:58.607Z,146979.20
2019-02-16T06:01:04.626Z,146975.47
2019-02-16T06:02:10.591Z,146986.73
2019-02-16T06:03:16.566Z,146985.52
2019-02-16T06:04:22.498Z,146986.73
2019-02-16T06:05:28.400Z,146996.16
2019-02-16T06:06:34.292Z,147058.33
2019-02-16T06:07:40.247Z,147116.09
2019-02-16T06:08:46.178Z,147091.61
2019-02-16T06:09:52.083Z,147069.02
2019-02-16T06:10:57.985Z,147036.33
2019-02-16T06:12:03.557Z,147015.00
2019-02-16T06:13:09.492Z,146996.16
2019-02-16T06:14:15.438Z,146986.73
2019-02-16T06:15:21.410Z,146977.31
2019-02-16T06:16:27.523Z,146979.20
2019-02-16T06:17:33.611Z,146977.94
2019-02-16T06:18:39.547Z,146976.72
2019-02-16T06:19:45.481Z,146977.94
2019-02-16T06:20:51.403Z,146961.63
2019-02-16T06:21:57.428Z,146956.63
2019-02-16T06:23:04.603Z,146954.09
2019-02-16T06:24:09.274Z,146979.83
2019-02-16T06:25:15.204Z,146972.94
2019-02-16T06:26:21.114Z,146969.16
2019-02-16T06:27:27.075Z,146976.72
2019-02-16T06:28:35.476Z,146969.16
2019-02-16T06:29:39.282Z,146966.05
2019-02-16T06:30:45.242Z,146985.52
2019-02-16T06:31:51.147Z,146986.73
2019-02-16T06:32:57.269Z,146984.89
2019-02-16T06:34:03.377Z,146982.36
2019-02-16T06:35:13.941Z,146981.09
2019-02-16T06:36:19.644Z,146976.72
2019-02-16T06:37:25.365Z,146974.20
2019-02-16T06:38:31.266Z,146964.78
2019-02-16T06:39:37.853Z,146966.05
2019-02-16T06:40:43.838Z,146964.78
2019-02-16T06:41:49.881Z,146966.05
2019-02-16T06:42:55.849Z,146967.94
2019-02-16T06:44:01.875Z,146961.00
2019-02-16T06:45:07.764Z,146965.41
2019-02-16T06:46:14.424Z,146957.25
2019-02-16T06:47:19.988Z,146961.00
2019-02-16T06:48:25.950Z,146966.05
2019-02-16T06:49:31.885Z,146978.56
2019-02-16T06:50:37.803Z,146976.09
2019-02-16T06:51:43.767Z,146988.00
2019-02-16T06:52:49.732Z,146984.25
2019-02-16T06:53:55.691Z,146957.25
2019-02-16T06:55:01.665Z,146962.25
2019-02-16T06:56:07.379Z,146968.56
2019-02-16T06:57:23.325Z,146961.00
2019-02-16T06:58:29.623Z,146970.41
2019-02-16T06:59:36.099Z,146983.00
2019-02-16T07:00:42.118Z,147017.53
2019-02-16T07:01:48.095Z,147018.16
2019-02-16T07:02:54.041Z,147025.69
2019-02-16T07:03:59.964Z,147000.58
2019-02-16T07:05:05.204Z,147013.73
2019-02-16T07:06:11.158Z,147039.48
2019-02-16T07:07:17.081Z,147015.00
2019-02-16T07:08:23.066Z,147032.58
2019-02-16T07:09:28.970Z,147064.59
2019-02-16T07:10:34.877Z,147079.03
2019-02-16T07:11:40.801Z,147088.45
2019-02-16T07:12:46.823Z,147123.00
2019-02-16T07:13:52.807Z,147148.75
2019-02-16T07:14:59.961Z,147115.47
2019-02-16T07:17:43.411Z,147082.19
2019-02-16T07:18:49.470Z,147092.88
2019-02-16T07:19:55.126Z,147089.72
2019-02-16T07:21:01.664Z,147077.81
2019-02-16T07:22:07.569Z,147072.13
2019-02-16T07:23:21.956Z,147072.13
2019-02-16T07:24:19.479Z,147072.75
2019-02-16T07:25:25.394Z,147068.39
2019-02-16T07:26:31.330Z,147080.28
2019-02-16T07:27:37.258Z,147112.94
2019-02-16T07:28:43.230Z,147132.44
2019-02-16T07:29:51.231Z,147141.22
2019-02-16T07:30:57.139Z,147166.97
2019-02-16T07:32:03.056Z,147208.44
2019-02-16T07:33:10.784Z,147179.52
2019-02-16T07:34:16.700Z,147190.22
2019-02-16T07:35:23.801Z,147202.80
2019-02-16T07:36:29.715Z,147262.50
2019-02-16T07:37:35.697Z,147248.64
2019-02-16T07:38:41.667Z,147257.44
2019-02-16T07:39:47.601Z,147303.97
2019-02-16T07:40:53.681Z,147320.30
2019-02-16T07:41:59.735Z,147324.05
2019-02-16T07:43:05.502Z,147335.37
2019-02-16T07:45:50.778Z,147391.31
2019-02-16T07:48:33.394Z,147442.23
2019-02-16T07:51:16.289Z,147438.50
2019-02-16T07:52:33.009Z,147437.22
2019-02-16T07:53:46.273Z,147434.06
2019-02-16T07:54:54.565Z,147444.13
2019-02-16T07:56:02.854Z,147461.11
2019-02-16T07:57:12.077Z,147476.83
2019-02-16T07:58:29.510Z,147487.53
2019-02-16T07:59:41.720Z,147580.00
2019-02-16T08:01:07.679Z,147619.61
2019-02-16T08:02:14.393Z,147643.52
2019-02-16T08:03:21.810Z,147635.34
2019-02-16T08:04:32.390Z,147671.22
2019-02-16T08:05:43.105Z,147689.47
2019-02-16T08:06:48.916Z,147788.28
2019-02-16T08:07:54.641Z,147831.73
2019-02-16T08:09:00.400Z,147860.09
2019-02-16T08:10:11.130Z,147920.50
2019-02-16T08:11:32.531Z,147975.33
2019-02-16T08:12:38.636Z,148015.00
2019-02-16T08:13:49.009Z,148106.38
2019-02-16T08:14:56.685Z,148122.17
2019-02-16T08:16:17.369Z,148138.55
2019-02-16T08:18:59.705Z,148207.84
2019-02-16T08:20:21.358Z,148210.39
2019-02-16T08:21:30.610Z,148203.47
2019-02-16T08:24:18.812Z,148270.94
2019-02-16T08:25:29.523Z,148298.06
2019-02-16T08:26:41.129Z,148332.13
2019-02-16T08:27:56.827Z,148339.69
2019-02-16T08:29:02.950Z,148340.31
2019-02-16T08:30:08.754Z,148337.14
2019-02-16T08:31:18.891Z,148380.67
2019-02-16T08:32:28.177Z,148412.20
2019-02-16T08:35:08.764Z,148455.13
2019-02-16T08:36:14.164Z,148470.89
2019-02-16T08:37:19.914Z,148508.78
2019-02-16T08:38:37.405Z,148583.25
2019-02-16T08:41:20.910Z,148646.34
2019-02-16T08:42:39.411Z,148670.38
2019-02-16T08:45:29.029Z,148780.91
2019-02-16T08:46:40.745Z,148831.45
2019-02-16T08:47:46.899Z,148868.06
2019-02-16T08:48:55.026Z,148890.84
2019-02-16T08:51:42.082Z,148987.56
2019-02-16T08:54:25.303Z,149057.13
2019-02-16T08:55:33.994Z,149095.67
2019-02-16T08:56:46.228Z,149128.55
2019-02-16T08:57:56.075Z,149162.06
2019-02-16T08:59:08.274Z,149163.34
2019-02-16T09:00:13.723Z,149204.44
2019-02-16T09:01:24.976Z,149192.45
2019-02-16T09:02:34.598Z,149212.66
2019-02-16T09:03:44.319Z,149220.30
2019-02-16T09:04:52.487Z,149222.80
2019-02-16T09:05:59.124Z,149248.73
2019-02-16T09:07:15.540Z,149282.91
2019-02-16T09:08:24.835Z,149291.77
2019-02-16T09:09:36.174Z,149333.53
2019-02-16T09:10:43.004Z,149341.11
2019-02-16T09:13:27.515Z,149358.20
2019-02-16T09:16:07.756Z,149390.47
2019-02-16T09:17:18.036Z,149436.06
2019-02-16T09:18:27.234Z,149438.61
2019-02-16T09:19:33.860Z,149466.48
2019-02-16T09:23:27.970Z,149539.97
2019-02-16T09:24:34.052Z,149519.63
2019-02-16T09:25:43.270Z,149550.11
2019-02-16T09:28:26.269Z,149600.13
2019-02-16T09:29:37.975Z,149614.05
2019-02-16T09:30:45.618Z,149619.14
2019-02-16T09:31:51.721Z,149629.88
2019-02-16T09:33:11.185Z,149649.53
2019-02-16T09:36:11.111Z,149690.06
2019-02-16T09:37:33.023Z,149721.73
2019-02-16T09:38:53.600Z,149761.69
2019-02-16T09:40:03.605Z,149787.03
2019-02-16T09:41:11.919Z,149787.03
2019-02-16T09:42:20.108Z,149791.45
2019-02-16T09:43:29.248Z,149800.33
2019-02-16T09:44:34.952Z,149796.55
2019-02-16T09:45:55.518Z,149805.42
2019-02-16T09:48:38.377Z,149843.42
2019-02-16T09:49:44.417Z,149844.70
2019-02-16T09:51:00.280Z,149864.37
2019-02-16T09:52:23.894Z,149897.97
2019-02-16T09:53:32.999Z,149935.98
2019-02-16T09:54:48.839Z,149946.14
2019-02-16T09:55:57.052Z,149957.56
2019-02-16T09:57:05.118Z,150002.61
2019-02-16T09:58:15.403Z,149993.03
2019-02-16T09:59:26.767Z,149981.66
2019-02-16T10:00:32.480Z,149996.23
2019-02-16T10:01:38.640Z,150048.94
2019-02-16T10:02:46.916Z,150101.59
2019-02-16T10:03:56.071Z,150095.20
2019-02-16T10:06:41.350Z,150102.22
2019-02-16T10:07:48.473Z,150107.91
2019-02-16T10:09:11.012Z,150179.59
2019-02-16T10:10:17.572Z,150179.00
2019-02-16T10:11:41.255Z,150177.72
2019-02-16T10:12:47.182Z,150171.34
2019-02-16T10:13:53.757Z,150196.13
2019-02-16T10:15:20.292Z,150240.52
2019-02-16T10:16:31.651Z,150304.66
2019-02-16T10:17:40.679Z,150329.41
2019-02-16T10:18:51.231Z,150342.72
2019-02-16T10:19:59.468Z,150312.27
2019-02-16T10:21:16.709Z,150300.81
2019-02-16T10:22:29.972Z,150324.30
2019-02-16T10:23:41.469Z,150343.98
2019-02-16T10:24:47.969Z,150375.72
2019-02-16T10:25:59.993Z,150384.61
2019-02-16T10:27:11.328Z,150396.11
2019-02-16T10:28:22.911Z,150389.08
2019-02-16T10:29:31.962Z,150410.69
2019-02-16T10:30:39.484Z,150391.00
2019-02-16T10:33:19.904Z,150467.25
2019-02-16T10:34:25.646Z,150432.95
2019-02-16T10:35:41.308Z,150422.14
2019-02-16T10:36:47.026Z,150431.03
2019-02-16T10:39:33.930Z,150391.00
2019-02-16T10:40:45.416Z,150395.47
2019-02-16T10:41:56.671Z,150428.48
2019-02-16T10:43:12.295Z,150439.28
2019-02-16T10:44:20.471Z,150458.36
2019-02-16T10:47:06.154Z,150532.66
2019-02-16T10:50:01.049Z,150589.81
2019-02-16T10:51:25.560Z,150602.55
2019-02-16T10:52:45.156Z,150591.73
2019-02-16T10:53:54.110Z,150584.11
2019-02-16T10:55:05.808Z,150599.98
2019-02-16T10:56:22.283Z,150647.63
2019-02-16T10:57:27.936Z,150684.50
2019-02-16T10:58:33.681Z,150694.67
2019-02-16T10:59:41.882Z,150711.84
2019-02-16T11:00:54.278Z,150712.47
2019-02-16T11:02:01.366Z,150751.28
2019-02-16T11:03:09.944Z,150783.09
2019-02-16T11:05:53.855Z,150758.25
2019-02-16T11:07:10.385Z,150744.94
2019-02-16T11:10:02.943Z,150778.63
2019-02-16T11:11:14.412Z,150810.39
2019-02-16T11:12:24.003Z,150791.36
2019-02-16T11:13:30.219Z,150795.16
2019-02-16T11:14:38.488Z,150786.87
2019-02-16T11:15:50.379Z,150835.81
2019-02-16T11:17:16.834Z,150881.63
2019-02-16T11:18:28.199Z,150842.81
2019-02-16T11:19:36.435Z,150868.28
2019-02-16T11:20:42.148Z,150861.25
2019-02-16T11:21:47.856Z,150915.33
2019-02-16T11:22:59.229Z,150937.56
2019-02-16T11:25:45.220Z,150992.28
2019-02-16T11:26:52.807Z,151076.94
2019-02-16T11:28:01.077Z,151047.02
2019-02-16T11:30:45.223Z,151047.61
2019-02-16T11:31:52.693Z,151052.09
2019-02-16T11:32:59.192Z,151057.84
2019-02-16T11:34:07.084Z,151050.17
2019-02-16T11:35:15.679Z,151081.38
2019-02-16T11:36:22.353Z,151153.30
2019-02-16T11:37:28.007Z,151146.95
2019-02-16T11:38:37.194Z,151146.95
2019-02-16T11:41:19.051Z,151220.13
2019-02-16T11:42:25.127Z,151200.42
2019-02-16T11:43:30.865Z,151200.42
2019-02-16T11:44:37.439Z,151213.13
2019-02-16T11:45:47.728Z,151234.75
2019-02-16T11:46:56.320Z,151301.00
2019-02-16T11:48:04.052Z,151314.98
2019-02-16T11:49:14.157Z,151348.78
2019-02-16T11:50:29.733Z,151341.73
2019-02-16T11:51:51.129Z,151368.53
2019-02-16T11:53:15.573Z,151364.05
2019-02-16T11:54:27.954Z,151358.34
2019-02-16T11:55:34.089Z,151383.81
2019-02-16T11:56:39.816Z,151390.16
2019-02-16T11:57:47.910Z,151365.33
2019-02-16T11:58:59.358Z,151362.77
2019-02-16T12:00:05.344Z,151386.38
2019-02-16T12:01:15.706Z,151445.59
2019-02-16T12:02:25.689Z,151485.72
2019-02-16T12:03:32.081Z,151474.23
2019-02-16T12:04:44.014Z,151511.19
2019-02-16T12:05:50.287Z,151544.97
2019-02-16T12:06:56.954Z,151538.59
2019-02-16T12:08:06.297Z,151567.23
2019-02-16T12:09:17.632Z,151569.16
2019-02-16T12:10:23.910Z,151598.50
2019-02-16T12:13:24.021Z,151492.72
2019-02-16T12:14:45.336Z,151481.28
2019-02-16T12:17:07.329Z,151524.55
2019-02-16T12:18:27.830Z,151480.64
2019-02-16T12:19:38.058Z,151506.11
2019-02-16T12:20:43.703Z,151558.38
2019-02-16T12:23:25.338Z,151596.56
2019-02-16T12:26:03.222Z,151617.67
2019-02-16T12:27:09.102Z,151615.70
2019-02-16T12:28:15.174Z,151629.11
2019-02-16T12:29:20.856Z,151652.69
2019-02-16T12:30:33.091Z,151677.58
2019-02-16T12:31:54.703Z,151668.02
2019-02-16T12:34:35.265Z,151669.30
2019-02-16T12:35:43.404Z,151697.95
2019-02-16T12:38:26.005Z,151757.88
2019-02-16T12:39:45.902Z,151780.22
2019-02-16T12:40:52.510Z,151773.16
2019-02-16T12:41:58.243Z,151781.44
2019-02-16T12:43:13.034Z,151791.66
2019-02-16T12:44:20.125Z,151789.73
2019-02-16T12:45:26.308Z,151820.38
2019-02-16T12:46:36.989Z,151802.50
2019-02-16T12:47:42.700Z,151801.88
2019-02-16T12:48:54.088Z,151794.22
2019-02-16T12:50:16.602Z,151703.08
2019-02-16T12:51:25.138Z,151720.28
2019-02-16T12:54:04.124Z,151734.30
2019-02-16T12:55:14.736Z,151785.94
2019-02-16T12:56:19.714Z,151836.30
2019-02-16T12:57:31.037Z,151824.16
2019-02-16T12:58:37.221Z,151889.28
2019-02-16T12:59:48.786Z,151882.88
2019-02-16T13:01:13.235Z,151796.78
2019-02-16T13:02:19.893Z,151816.52
2019-02-16T13:03:35.579Z,151891.81
2019-02-16T13:04:52.726Z,151946.03
2019-02-16T13:06:04.223Z,151932.03
2019-02-16T13:07:13.488Z,151909.67
2019-02-16T13:08:20.801Z,151920.52
2019-02-16T13:09:28.970Z,151965.83
2019-02-16T13:12:10.699Z,152003.44
2019-02-16T13:13:22.958Z,151993.86
2019-02-16T13:14:30.489Z,151992.63
2019-02-16T13:15:51.069Z,151956.25
2019-02-16T13:17:08.617Z,151927.53
2019-02-16T13:18:14.437Z,151960.69
2019-02-16T13:19:20.783Z,151993.27
2019-02-16T13:20:32.273Z,152004.08
2019-02-16T13:21:40.632Z,152002.80
2019-02-16T13:22:48.743Z,152037.89
2019-02-16T13:23:56.531Z,152113.86
2019-02-16T13:25:04.162Z,152106.16
2019-02-16T13:26:15.681Z,152098.50
2019-02-16T13:27:31.447Z,152001.56
2019-02-16T13:28:38.958Z,151926.25
2019-02-16T13:29:50.459Z,151972.19
2019-02-16T13:31:02.051Z,151976.69
2019-02-16T13:32:07.947Z,152038.53
2019-02-16T13:33:29.438Z,152036.59
2019-02-16T13:34:41.856Z,152000.28
2019-02-16T13:35:49.112Z,151935.83
2019-02-16T13:37:10.733Z,151911.59
2019-02-16T13:39:52.097Z,152034.73
2019-02-16T13:41:01.377Z,152041.09
2019-02-16T13:42:07.765Z,152020.66
2019-02-16T13:43:22.071Z,152050.03
2019-02-16T13:44:32.388Z,152119.00
2019-02-16T13:45:42.947Z,151947.97
2019-02-16T13:46:52.744Z,151963.91
2019-02-16T13:49:47.923Z,152007.92
2019-02-16T13:51:25.160Z,152060.25
2019-02-16T13:52:34.033Z,152049.39
2019-02-16T13:53:45.526Z,152079.34
2019-02-16T13:56:28.867Z,152100.44
2019-02-16T13:57:40.158Z,152031.52